Time;durP1;ratioP1;P1;durP2;ratioP2;P2;SDS_P1;SDS_P2;PMS_P1;PMS_P2;Temp;Humidity;BMP_temperature;BMP_pressure;BME280_temperature;BME280_humidity;BME280_pressure;Samples;Min_cycle;Max_cycle;Signal;HPM_P1;HPM_P2
2021/07/23 00:01:08;;;;;;;8.33;4.07;;;;;;;13.61;84.69;101235.31;5056712;28;20179;-72
2021/07/23 00:03:33;;;;;;;12.17;4.37;;;;;;;13.67;84.30;101234.97;5073428;28;20187;-71
2021/07/23 00:05:59;;;;;;;15.13;4.67;;;;;;;13.76;84.35;101229.06;5072881;28;20567;-71
2021/07/23 00:08:24;;;;;;;9.50;3.50;;;;;;;13.71;84.43;101237.38;5056465;28;20175;-71
2021/07/23 00:10:49;;;;;;;8.57;4.60;;;;;;;13.80;85.06;101232.44;5074319;28;20175;-71
2021/07/23 00:13:14;;;;;;;10.70;5.00;;;;;;;13.86;85.12;101230.25;5086327;28;20202;-71
2021/07/23 00:15:40;;;;;;;6.77;4.07;;;;;;;13.90;84.11;101236.28;5082757;28;20187;-71
2021/07/23 00:18:05;;;;;;;16.00;4.77;;;;;;;13.94;84.27;101236.00;5073626;28;20190;-71
2021/07/23 00:20:31;;;;;;;7.67;4.40;;;;;;;13.96;84.00;101226.03;5073101;28;20171;-72
2021/07/23 00:22:56;;;;;;;10.10;4.23;;;;;;;14.02;83.43;101231.03;5072902;28;20225;-71
2021/07/23 00:25:21;;;;;;;10.03;4.40;;;;;;;14.07;83.12;101228.91;5072796;28;20222;-71
2021/07/23 00:27:47;;;;;;;11.53;4.43;;;;;;;14.09;82.58;101235.06;5056000;28;20183;-71
2021/07/23 00:30:12;;;;;;;5.83;4.00;;;;;;;14.11;82.42;101229.59;5056046;28;20186;-71
2021/07/23 00:32:40;;;;;;;8.53;4.60;;;;;;;14.10;82.38;101225.19;5072614;28;20185;-71
2021/07/23 00:35:06;;;;;;;9.87;4.27;;;;;;;14.13;82.23;101222.34;5072591;28;20646;-72
2021/07/23 00:37:31;;;;;;;11.97;4.83;;;;;;;14.15;81.87;101217.72;5072453;28;20182;-71
2021/07/23 00:39:56;;;;;;;11.60;5.20;;;;;;;14.15;81.79;101219.56;5073146;28;20186;-71
2021/07/23 00:42:34;;;;;;;9.90;4.33;;;;;;;14.14;82.64;101224.06;5072656;28;20580;-71
2021/07/23 00:45:00;;;;;;;7.17;4.30;;;;;;;14.22;82.36;101212.84;5056461;28;20614;-72
2021/07/23 00:47:25;;;;;;;11.37;4.23;;;;;;;14.30;81.14;101219.47;5072779;28;20171;-72
2021/07/23 00:49:52;;;;;;;8.73;4.37;;;;;;;14.35;81.09;101216.47;5073800;28;20182;-72
2021/07/23 00:52:17;;;;;;;11.67;3.33;;;;;;;14.39;79.33;101223.38;5072375;28;20544;-72
2021/07/23 00:54:43;;;;;;;7.40;3.73;;;;;;;14.44;79.05;101221.31;5073771;28;20203;-71
2021/07/23 00:57:08;;;;;;;7.80;3.43;;;;;;;14.45;78.45;101217.66;5055719;28;20210;-71
2021/07/23 00:59:33;;;;;;;10.73;3.13;;;;;;;14.46;77.76;101229.25;5055557;28;20183;-71
2021/07/23 01:01:59;;;;;;;11.50;3.10;;;;;;;14.46;78.14;101230.13;5055609;28;20182;-71
2021/07/23 01:04:24;;;;;;;9.53;3.20;;;;;;;14.47;77.59;101217.56;5073045;28;20175;-71
2021/07/23 01:06:49;;;;;;;6.53;3.07;;;;;;;14.48;77.21;101222.84;5072280;28;20621;-71
2021/07/23 01:09:15;;;;;;;8.37;3.30;;;;;;;14.51;77.29;101221.81;5073357;28;20182;-71
2021/07/23 01:11:42;;;;;;;7.27;3.00;;;;;;;14.49;77.78;101219.19;5073574;28;20704;-72
2021/07/23 01:14:07;;;;;;;5.23;3.20;;;;;;;14.47;78.40;101218.41;5073504;28;20250;-71
2021/07/23 01:16:32;;;;;;;7.87;2.90;;;;;;;14.49;78.33;101213.81;5057151;28;20194;-72
2021/07/23 01:18:58;;;;;;;7.23;3.10;;;;;;;14.52;78.50;101218.16;5081131;28;20186;-71
2021/07/23 01:21:25;;;;;;;5.73;3.23;;;;;;;14.62;81.55;101220.16;5092246;28;20201;-71
2021/07/23 01:23:50;;;;;;;7.60;3.43;;;;;;;14.63;79.77;101215.66;5092489;28;20174;-71
2021/07/23 01:26:16;;;;;;;11.27;4.20;;;;;;;14.58;79.60;101213.25;5091325;28;20194;-72
2021/07/23 01:28:45;;;;;;;7.07;3.17;;;;;;;14.56;80.46;101211.63;5091630;28;20167;-71
2021/07/23 01:31:10;;;;;;;8.10;3.13;;;;;;;14.53;82.13;101214.50;5081727;28;20167;-71
2021/07/23 01:33:36;;;;;;;4.73;3.23;;;;;;;14.56;87.13;101209.81;5073293;28;20245;-72
2021/07/23 01:36:02;;;;;;;6.10;3.50;;;;;;;14.73;88.88;101213.22;5071912;28;20199;-71
2021/07/23 01:38:28;;;;;;;9.40;3.60;;;;;;;14.75;88.17;101214.84;5055019;28;20193;-70
2021/07/23 01:40:54;;;;;;;6.30;3.60;;;;;;;14.75;88.20;101204.09;5055119;28;20252;-71
2021/07/23 01:43:20;;;;;;;5.50;3.30;;;;;;;14.80;87.74;101209.19;5071522;28;20570;-71
2021/07/23 01:45:45;;;;;;;3.73;2.80;;;;;;;14.77;88.38;101207.56;5072142;28;20252;-71
2021/07/23 01:48:10;;;;;;;7.07;3.87;;;;;;;14.67;86.11;101207.28;5071789;28;20267;-72
2021/07/23 01:50:36;;;;;;;6.27;3.07;;;;;;;14.65;89.91;101209.22;5054731;28;20178;-71
2021/07/23 01:53:01;;;;;;;8.77;3.23;;;;;;;14.63;89.06;101204.91;5071823;28;20248;-71
2021/07/23 01:55:26;;;;;;;5.00;3.07;;;;;;;14.61;87.18;101207.69;5071603;28;20198;-72
2021/07/23 01:57:52;;;;;;;8.30;3.03;;;;;;;14.62;88.68;101198.66;5071689;28;20171;-70
2021/07/23 02:00:17;;;;;;;8.20;3.23;;;;;;;14.56;85.70;101199.06;5071544;28;20178;-70
2021/07/23 02:02:43;;;;;;;8.67;3.00;;;;;;;14.53;84.58;101193.88;5054629;28;20544;-70
2021/07/23 02:05:08;;;;;;;7.70;3.20;;;;;;;14.58;88.20;101201.66;5054568;28;20588;-72
2021/07/23 02:07:34;;;;;;;3.90;2.70;;;;;;;14.66;87.84;101199.31;5074844;28;20167;-71
2021/07/23 02:10:00;;;;;;;7.00;3.20;;;;;;;14.63;86.26;101195.00;5075046;28;20178;-71
2021/07/23 02:12:25;;;;;;;5.67;2.97;;;;;;;14.66;88.58;101193.94;5076240;28;20236;-71
2021/07/23 02:14:51;;;;;;;7.33;2.97;;;;;;;14.65;86.79;101193.09;5058362;28;20194;-71
2021/07/23 02:17:16;;;;;;;4.80;2.70;;;;;;;14.58;85.38;101197.13;5058429;28;20194;-71
2021/07/23 02:19:42;;;;;;;5.40;2.93;;;;;;;14.57;85.37;101197.25;5076406;28;20175;-71
2021/07/23 02:22:07;;;;;;;5.47;2.93;;;;;;;14.66;87.52;101194.81;5075317;28;20190;-72
2021/07/23 02:24:33;;;;;;;6.03;2.80;;;;;;;14.66;86.64;101191.28;5075080;28;20163;-71
2021/07/23 02:26:58;;;;;;;6.43;3.13;;;;;;;14.70;85.29;101188.28;5075099;28;20194;-69
2021/07/23 02:29:24;;;;;;;10.33;2.67;;;;;;;14.74;85.32;101188.09;5074956;28;20167;-71
2021/07/23 02:31:49;;;;;;;8.40;3.07;;;;;;;14.80;85.80;101179.63;5074886;28;20516;-71
2021/07/23 02:34:15;;;;;;;6.00;3.43;;;;;;;14.82;84.65;101181.25;5077077;28;20191;-71
2021/07/23 02:36:40;;;;;;;7.97;3.90;;;;;;;15.04;90.21;101178.03;5074981;28;20240;-69
2021/07/23 02:39:05;;;;;;;7.00;3.30;;;;;;;15.13;90.67;101182.78;5058021;28;20241;-71
2021/07/23 02:41:30;;;;;;;6.13;3.70;;;;;;;15.27;88.72;101181.88;5076248;28;20171;-71
2021/07/23 02:43:56;;;;;;;5.50;3.80;;;;;;;15.25;87.93;101176.59;5075443;28;20195;-71
2021/07/23 02:46:21;;;;;;;8.37;3.20;;;;;;;15.21;86.70;101180.44;5074628;28;20202;-71
2021/07/23 02:48:46;;;;;;;8.40;3.20;;;;;;;15.27;86.78;101182.75;5074520;28;20217;-71
2021/07/23 02:51:12;;;;;;;7.30;3.00;;;;;;;15.24;87.33;101182.09;5074437;28;20217;-70
2021/07/23 02:53:37;;;;;;;4.07;2.63;;;;;;;15.23;88.30;101178.50;5057542;28;20654;-71
2021/07/23 02:56:02;;;;;;;6.23;3.10;;;;;;;15.26;88.79;101178.34;5074481;28;20195;-71
2021/07/23 02:58:28;;;;;;;5.50;3.20;;;;;;;15.28;87.62;101181.78;5074496;28;20240;-70
2021/07/23 03:00:53;;;;;;;5.60;3.13;;;;;;;15.29;88.08;101172.75;5074190;28;20179;-71
2021/07/23 03:03:18;;;;;;;6.33;3.10;;;;;;;15.30;87.64;101177.16;5057620;28;20646;-71
2021/07/23 03:05:44;;;;;;;5.57;2.80;;;;;;;15.37;84.14;101185.66;5074369;28;20209;-71
2021/07/23 03:08:09;;;;;;;6.97;2.93;;;;;;;15.29;81.94;101167.38;5057833;28;20182;-71
2021/07/23 03:10:34;;;;;;;5.60;2.90;;;;;;;15.12;84.91;101166.75;5057493;28;20179;-71
2021/07/23 03:13:00;;;;;;;6.10;3.17;;;;;;;15.17;86.17;101173.53;5074335;28;20178;-71
2021/07/23 03:15:25;;;;;;;6.10;3.13;;;;;;;15.10;84.49;101172.25;5074157;28;20201;-72
2021/07/23 03:17:50;;;;;;;7.60;3.67;;;;;;;15.11;86.45;101173.09;5075516;28;20194;-71
2021/07/23 03:20:16;;;;;;;6.80;3.37;;;;;;;15.25;86.45;101171.22;5057492;28;20547;-71
2021/07/23 03:22:41;;;;;;;6.23;3.03;;;;;;;15.30;85.42;101173.63;5057214;28;20175;-71
2021/07/23 03:25:08;;;;;;;7.70;3.20;;;;;;;15.35;85.85;101166.09;5074028;28;20171;-71
2021/07/23 03:27:33;;;;;;;13.60;3.80;;;;;;;15.28;87.80;101160.28;5074060;28;20175;-71
2021/07/23 03:29:58;;;;;;;6.93;3.30;;;;;;;15.35;88.28;101165.22;5073729;28;20183;-71
2021/07/23 03:32:24;;;;;;;7.67;3.70;;;;;;;15.43;87.17;101163.75;5074424;28;20577;-72
2021/07/23 03:34:49;;;;;;;6.03;3.40;;;;;;;15.45;86.55;101160.94;5074603;28;20205;-72
2021/07/23 03:37:14;;;;;;;8.63;3.67;;;;;;;15.29;83.90;101159.31;5075531;28;20205;-73
2021/07/23 03:39:39;;;;;;;7.87;3.53;;;;;;;15.22;86.82;101149.91;5074092;28;20578;-70
2021/07/23 03:42:05;;;;;;;8.27;3.20;;;;;;;15.17;87.34;101160.09;5073374;28;20210;-71
2021/07/23 03:44:30;;;;;;;4.60;3.03;;;;;;;15.27;86.44;101166.63;5056908;28;20186;-71
2021/07/23 03:46:55;;;;;;;8.73;3.60;;;;;;;15.18;86.77;101159.13;5073580;28;20191;-71
2021/07/23 03:49:21;;;;;;;11.53;3.67;;;;;;;15.02;87.51;101161.13;5073386;28;20183;-71
2021/07/23 03:51:46;;;;;;;6.60;3.50;;;;;;;14.96;87.83;101156.16;5073248;28;20547;-71
2021/07/23 03:54:11;;;;;;;5.10;3.07;;;;;;;14.94;87.78;101158.97;5074406;28;20229;-71
2021/07/23 03:56:37;;;;;;;5.17;3.60;;;;;;;14.92;87.65;101166.25;5073689;28;20199;-72
2021/07/23 03:59:02;;;;;;;10.97;4.27;;;;;;;14.92;87.51;101160.88;5073349;28;20548;-71
2021/07/23 04:01:27;;;;;;;6.50;3.77;;;;;;;14.99;87.26;101164.03;5074560;28;20175;-72
2021/07/23 04:03:52;;;;;;;5.70;3.37;;;;;;;15.01;86.55;101162.09;5072942;28;20232;-71
2021/07/23 04:06:18;;;;;;;10.47;3.60;;;;;;;15.05;86.09;101163.63;5102133;22;20540;-69
2021/07/23 04:08:43;;;;;;;6.10;3.17;;;;;;;15.07;86.03;101159.00;5094281;28;20661;-68
2021/07/23 04:11:16;;;;;;;11.57;3.53;;;;;;;15.15;85.50;101159.34;5095053;28;20175;-69
2021/07/23 04:13:42;;;;;;;4.27;3.27;;;;;;;15.20;84.88;101165.28;5094429;28;20187;-69
2021/07/23 04:16:08;;;;;;;7.23;3.30;;;;;;;15.21;84.67;101156.25;5093259;28;20281;-70
2021/07/23 04:18:33;;;;;;;5.30;3.00;;;;;;;15.33;85.13;101157.25;5076208;28;20227;-69
2021/07/23 04:21:02;;;;;;;6.17;3.20;;;;;;;15.50;84.28;101165.03;5094740;28;20534;-69
2021/07/23 04:23:28;;;;;;;9.20;3.50;;;;;;;15.53;83.16;101169.34;5094079;28;20178;-68
2021/07/23 04:25:53;;;;;;;4.93;2.97;;;;;;;15.50;83.39;101169.56;5094092;28;20186;-68
2021/07/23 04:28:18;;;;;;;8.77;3.37;;;;;;;15.45;82.24;101169.88;5093903;28;20178;-68
2021/07/23 04:30:43;;;;;;;8.93;3.63;;;;;;;15.56;82.16;101169.13;5094603;28;20516;-68
2021/07/23 04:33:09;;;;;;;7.97;3.43;;;;;;;15.63;80.63;101173.19;5094507;28;20236;-68
2021/07/23 04:35:34;;;;;;;8.03;4.30;;;;;;;15.63;77.41;101173.19;5094014;28;20179;-68
2021/07/23 04:37:59;;;;;;;13.20;3.37;;;;;;;15.68;76.62;101171.03;5094213;28;20535;-68
2021/07/23 04:40:25;;;;;;;7.70;3.10;;;;;;;15.69;76.50;101180.84;5094150;28;20177;-68
2021/07/23 04:42:50;;;;;;;27.03;17.07;;;;;;;15.75;75.70;101172.34;5092494;28;20226;-68
2021/07/23 04:45:16;;;;;;;11.07;4.87;;;;;;;15.90;73.93;101173.94;5094187;28;20174;-68
2021/07/23 04:47:41;;;;;;;12.70;6.27;;;;;;;15.92;73.30;101174.69;5092309;28;20189;-69
2021/07/23 04:50:06;;;;;;;15.43;5.13;;;;;;;15.72;75.01;101177.94;5093596;28;20546;-68
2021/07/23 04:52:32;;;;;;;10.27;4.93;;;;;;;15.71;74.50;101178.91;5094309;28;20646;-68
2021/07/23 04:54:59;;;;;;;11.20;4.83;;;;;;;15.84;71.03;101174.38;5093496;28;20187;-68
2021/07/23 04:57:28;;;;;;;13.33;7.43;;;;;;;15.94;70.59;101172.75;5093511;28;20218;-68
2021/07/23 04:59:54;;;;;;;11.83;5.87;;;;;;;16.08;68.48;101170.94;5093807;28;20212;-68
2021/07/23 05:02:19;;;;;;;12.83;6.07;;;;;;;16.15;69.60;101169.53;5075426;28;20650;-68
2021/07/23 05:04:45;;;;;;;15.20;8.20;;;;;;;16.20;70.77;101170.06;5092511;28;20167;-68
2021/07/23 05:07:10;;;;;;;10.10;5.13;;;;;;;16.19;71.41;101173.75;5093734;28;20205;-69
2021/07/23 05:09:35;;;;;;;13.07;4.50;;;;;;;16.25;71.35;101173.28;5094028;28;20657;-69
2021/07/23 05:12:01;;;;;;;9.43;3.70;;;;;;;16.29;71.61;101168.53;5094388;28;20166;-69
2021/07/23 05:14:28;;;;;;;7.27;3.53;;;;;;;16.43;71.47;101172.00;5092555;28;20678;-70
2021/07/23 05:16:54;;;;;;;8.20;3.03;;;;;;;16.44;71.05;101176.41;5092686;28;20239;-69
2021/07/23 05:19:20;;;;;;;5.90;3.60;;;;;;;16.47;71.43;101167.25;5094345;28;20174;-69
2021/07/23 05:21:45;;;;;;;9.10;4.53;;;;;;;16.49;71.47;101166.16;5093775;28;20201;-69
2021/07/23 05:24:10;;;;;;;10.20;4.00;;;;;;;16.58;71.34;101162.78;5093177;28;20206;-69
2021/07/23 05:26:37;;;;;;;9.43;3.30;;;;;;;16.57;70.76;101158.38;5092046;28;20194;-69
2021/07/23 05:29:09;;;;;;;6.07;3.07;;;;;;;16.43;72.54;101166.59;5092378;28;20186;-69
2021/07/23 05:31:39;;;;;;;5.20;2.97;;;;;;;16.55;71.07;101171.09;5092009;28;20566;-68
2021/07/23 05:34:05;;;;;;;7.27;3.13;;;;;;;16.55;71.25;101165.72;5092195;28;20655;-68
2021/07/23 05:36:30;;;;;;;8.73;3.10;;;;;;;16.62;71.32;101165.25;5093163;28;20197;-68
2021/07/23 05:38:55;;;;;;;6.40;2.97;;;;;;;16.72;71.25;101156.41;5093308;28;20228;-69
2021/07/23 05:41:21;;;;;;;7.23;3.20;;;;;;;16.80;70.52;101155.88;5093476;28;20197;-68
2021/07/23 05:43:46;;;;;;;7.17;3.50;;;;;;;16.91;70.20;101161.31;5097643;28;20511;-68
2021/07/23 05:46:11;;;;;;;5.17;2.67;;;;;;;17.00;70.38;101157.06;5097291;28;20194;-68
2021/07/23 05:48:38;;;;;;;5.17;2.70;;;;;;;16.93;69.95;101153.97;5096009;28;20546;-68
2021/07/23 05:51:04;;;;;;;5.87;2.47;;;;;;;16.92;70.46;101159.50;5095821;28;20173;-68
2021/07/23 05:53:30;;;;;;;4.33;2.67;;;;;;;17.00;70.70;101166.03;5095803;28;20604;-68
2021/07/23 05:55:57;;;;;;;6.23;2.53;;;;;;;17.00;70.94;101167.88;5095850;28;20194;-67
2021/07/23 05:58:23;;;;;;;12.10;3.23;;;;;;;17.06;70.40;101164.69;5096835;28;20219;-68
2021/07/23 06:00:48;;;;;;;6.13;2.47;;;;;;;17.07;69.83;101161.88;5097367;28;20173;-68
2021/07/23 06:03:13;;;;;;;9.93;3.13;;;;;;;17.04;70.42;101166.66;5096770;28;20169;-68
2021/07/23 06:05:39;;;;;;;6.43;3.37;;;;;;;17.06;70.59;101165.56;5095546;28;20174;-68
2021/07/23 06:08:04;;;;;;;5.10;2.87;;;;;;;17.08;70.30;101162.75;5097150;28;20159;-68
2021/07/23 06:10:29;;;;;;;5.23;2.70;;;;;;;17.10;70.97;101159.00;5096804;28;20711;-68
2021/07/23 06:12:54;;;;;;;6.70;2.80;;;;;;;17.13;70.96;101164.16;5096989;28;20178;-68
2021/07/23 06:15:20;;;;;;;5.13;2.27;;;;;;;17.14;70.57;101162.31;5096563;28;20512;-68
2021/07/23 06:17:45;;;;;;;4.43;2.40;;;;;;;17.12;70.14;101159.75;5095152;28;20234;-68
2021/07/23 06:20:11;;;;;;;8.53;2.63;;;;;;;17.23;70.43;101160.75;5097050;28;20175;-68
2021/07/23 06:22:36;;;;;;;5.60;2.40;;;;;;;17.24;70.30;101165.16;5095484;28;20174;-68
2021/07/23 06:25:01;;;;;;;9.27;2.50;;;;;;;17.37;70.08;101168.66;5081123;28;20171;-69
2021/07/23 06:27:27;;;;;;;5.47;2.27;;;;;;;17.41;69.11;101164.75;5080005;28;20689;-69
2021/07/23 06:29:53;;;;;;;3.90;2.20;;;;;;;17.45;69.07;101160.81;5096258;28;20174;-68
2021/07/23 06:32:20;;;;;;;5.37;2.20;;;;;;;17.57;68.52;101164.44;5096540;28;20178;-68
2021/07/23 06:34:45;;;;;;;6.43;2.70;;;;;;;17.63;68.25;101162.13;5078180;28;20715;-68
2021/07/23 06:37:10;;;;;;;4.93;2.20;;;;;;;17.71;68.25;101167.81;5096235;28;20190;-69
2021/07/23 06:39:36;;;;;;;10.60;2.60;;;;;;;17.77;67.94;101161.94;5096418;28;20227;-69
2021/07/23 06:42:01;;;;;;;6.17;2.07;;;;;;;17.76;67.54;101159.38;5095100;28;20613;-68
2021/07/23 06:44:28;;;;;;;3.60;2.13;;;;;;;17.72;66.89;101158.75;5095846;28;20174;-68
2021/07/23 06:46:54;;;;;;;3.73;2.20;;;;;;;17.79;67.09;101159.13;5094585;28;20262;-68
2021/07/23 06:49:19;;;;;;;7.03;2.00;;;;;;;17.93;65.54;101155.38;5096091;28;20530;-68
2021/07/23 06:51:44;;;;;;;4.90;2.60;;;;;;;18.02;66.07;101151.94;5094301;28;20174;-68
2021/07/23 06:54:10;;;;;;;5.13;2.10;;;;;;;18.10;65.87;101161.13;5096019;28;20240;-68
2021/07/23 06:56:35;;;;;;;6.17;2.03;;;;;;;18.06;65.82;101156.97;5094561;28;20193;-68
2021/07/23 06:59:00;;;;;;;8.10;2.70;;;;;;;18.17;65.51;101152.53;5094364;28;20178;-69
2021/07/23 07:01:25;;;;;;;6.57;2.40;;;;;;;18.25;64.26;101148.28;5095995;28;20180;-68
2021/07/23 07:03:51;;;;;;;7.13;2.00;;;;;;;18.33;62.86;101145.81;5095847;28;20170;-68
2021/07/23 07:06:16;;;;;;;8.43;2.37;;;;;;;18.45;63.00;101152.06;5094243;28;20214;-68
2021/07/23 07:08:42;;;;;;;9.40;2.20;;;;;;;18.17;63.44;101153.41;5095479;28;20669;-68
2021/07/23 07:11:07;;;;;;;9.80;2.60;;;;;;;18.13;64.74;101154.63;5094123;28;20542;-69
2021/07/23 07:13:32;;;;;;;6.77;2.40;;;;;;;18.31;64.04;101150.47;5094353;28;20194;-69
2021/07/23 07:15:58;;;;;;;6.83;2.40;;;;;;;18.28;63.62;101147.16;5095294;28;20190;-69
2021/07/23 07:18:23;;;;;;;3.67;2.20;;;;;;;18.27;63.99;101149.00;5095336;28;20175;-69
2021/07/23 07:20:48;;;;;;;7.23;2.23;;;;;;;18.39;64.32;101150.72;5094137;28;20185;-69
2021/07/23 07:23:14;;;;;;;4.23;2.07;;;;;;;18.51;64.14;101145.28;5095308;28;20569;-69
2021/07/23 07:25:39;;;;;;;5.87;2.33;;;;;;;18.70;64.11;101146.41;5095452;28;20630;-69
2021/07/23 07:28:04;;;;;;;5.27;2.33;;;;;;;18.81;63.72;101144.66;5095653;28;20182;-69
2021/07/23 07:30:30;;;;;;;6.60;2.30;;;;;;;18.55;63.30;101152.16;5093868;28;20178;-69
2021/07/23 07:32:55;;;;;;;8.93;2.30;;;;;;;18.09;63.85;101145.06;5095328;28;20173;-69
2021/07/23 07:35:20;;;;;;;6.00;2.17;;;;;;;18.32;63.51;101145.94;5095056;28;20546;-69
2021/07/23 07:37:46;;;;;;;5.87;2.43;;;;;;;17.99;62.61;101144.94;5095062;28;20230;-69
2021/07/23 07:40:12;;;;;;;7.43;2.50;;;;;;;17.91;64.38;101150.09;5095363;28;20227;-69
2021/07/23 07:42:37;;;;;;;6.30;2.53;;;;;;;18.42;62.83;101144.19;5093734;28;20547;-69
2021/07/23 07:45:04;;;;;;;6.37;2.10;;;;;;;18.63;62.40;101149.75;5095320;28;20181;-69
2021/07/23 07:47:29;;;;;;;3.80;1.90;;;;;;;18.76;62.47;101147.75;5093901;28;20642;-69
2021/07/23 07:49:54;;;;;;;7.47;2.73;;;;;;;18.97;62.35;101148.69;5095244;28;20208;-69
2021/07/23 07:52:20;;;;;;;7.87;2.83;;;;;;;19.32;61.01;101147.56;5093528;28;20170;-69
2021/07/23 07:54:46;;;;;;;7.67;2.60;;;;;;;19.00;59.38;101150.28;5094634;28;20197;-69
2021/07/23 07:57:11;;;;;;;8.17;2.60;;;;;;;19.33;58.83;101144.75;5093477;28;20255;-69
2021/07/23 07:59:37;;;;;;;3.80;2.03;;;;;;;19.44;58.06;101143.84;5094535;28;20174;-69
2021/07/23 08:02:06;;;;;;;6.83;2.70;;;;;;;19.72;55.41;101155.91;5093560;28;20170;-69
2021/07/23 08:04:31;;;;;;;4.30;2.00;;;;;;;19.88;54.58;101147.28;5093577;28;20197;-69
2021/07/23 08:06:56;;;;;;;5.77;2.43;;;;;;;20.01;52.01;101153.34;5092925;28;20205;-69
2021/07/23 08:09:22;;;;;;;4.60;2.37;;;;;;;20.10;51.64;101139.03;5093145;28;20173;-69
2021/07/23 08:11:47;;;;;;;3.87;2.40;;;;;;;20.33;52.10;101133.41;5094316;28;20174;-69
2021/07/23 08:14:12;;;;;;;7.73;2.57;;;;;;;20.09;53.45;101129.19;5094162;28;20208;-69
2021/07/23 08:16:38;;;;;;;6.93;2.80;;;;;;;20.10;55.07;101136.31;5094830;28;20186;-69
2021/07/23 08:19:03;;;;;;;5.13;2.20;;;;;;;20.10;54.43;101139.03;5093045;28;20166;-69
2021/07/23 08:21:31;;;;;;;4.83;2.60;;;;;;;20.24;53.41;101138.66;5093923;28;20253;-69
2021/07/23 08:23:57;;;;;;;7.77;2.97;;;;;;;20.49;54.07;101133.78;5094582;28;20168;-68
2021/07/23 08:26:23;;;;;;;7.30;2.53;;;;;;;20.34;52.86;101132.41;5092760;28;20190;-69
2021/07/23 08:28:48;;;;;;;5.23;2.30;;;;;;;20.47;53.24;101136.63;5076762;28;20522;-69
2021/07/23 08:31:14;;;;;;;9.60;2.73;;;;;;;20.03;52.41;101143.22;5092879;28;20273;-69
2021/07/23 08:33:42;;;;;;;4.57;2.23;;;;;;;20.53;51.88;101140.66;5094041;28;20190;-69
2021/07/23 08:36:07;;;;;;;5.70;2.70;;;;;;;20.69;51.17;101135.53;5093704;28;20672;-69
2021/07/23 08:38:33;;;;;;;5.87;2.60;;;;;;;19.97;53.08;101138.34;5092456;28;20277;-68
2021/07/23 08:40:58;;;;;;;9.10;2.60;;;;;;;20.29;51.02;101138.22;5093656;28;20212;-68
2021/07/23 08:43:23;;;;;;;5.57;2.40;;;;;;;20.38;51.56;101136.56;5092367;28;20196;-68
2021/07/23 08:45:49;;;;;;;4.03;2.50;;;;;;;20.52;50.41;101136.22;5093576;28;20201;-69
2021/07/23 08:48:14;;;;;;;5.17;2.50;;;;;;;20.67;50.93;101136.69;5093624;28;20647;-68
2021/07/23 08:50:39;;;;;;;7.23;3.10;;;;;;;19.75;52.00;101128.56;5093749;28;20215;-69
2021/07/23 08:53:11;;;;;;;4.03;2.40;;;;;;;20.18;52.04;101135.63;5093700;28;20170;-69
2021/07/23 08:55:37;;;;;;;4.80;2.73;;;;;;;20.05;51.18;101133.13;5093469;28;20162;-69
2021/07/23 08:58:05;;;;;;;5.17;2.90;;;;;;;19.79;51.86;101132.72;5093395;28;20581;-69
2021/07/23 09:00:31;;;;;;;4.03;2.20;;;;;;;19.95;52.73;101132.22;5092402;28;20174;-67
2021/07/23 09:03:06;;;;;;;10.07;2.60;;;;;;;20.13;52.03;101127.91;5092007;28;20669;-67
2021/07/23 09:05:36;;;;;;;4.83;2.40;;;;;;;20.42;52.19;101132.59;5092221;28;20179;-67
2021/07/23 09:08:07;;;;;;;7.00;2.80;;;;;;;20.97;49.98;101120.31;5092289;28;20181;-68
2021/07/23 09:10:33;;;;;;;7.43;2.87;;;;;;;21.18;50.53;101131.03;5093869;28;20652;-68
2021/07/23 09:13:01;;;;;;;3.07;2.30;;;;;;;20.91;52.24;101124.47;5091909;28;20249;-68
2021/07/23 09:15:28;;;;;;;3.73;2.30;;;;;;;21.27;49.94;101121.25;5092956;28;20178;-68
2021/07/23 09:17:54;;;;;;;5.43;2.30;;;;;;;21.20;50.26;101132.63;5093257;28;20170;-68
2021/07/23 09:20:23;;;;;;;5.23;2.67;;;;;;;20.53;52.42;101119.81;5093094;28;20166;-68
2021/07/23 09:22:51;;;;;;;6.70;2.80;;;;;;;20.60;52.57;101117.41;5075002;28;20178;-68
2021/07/23 09:25:34;;;;;;;5.27;2.60;;;;;;;20.86;50.64;101124.03;5091683;28;20822;-68
2021/07/23 09:27:59;;;;;;;8.30;2.90;;;;;;;20.86;53.35;101115.91;5093134;28;20170;-68
2021/07/23 09:30:55;;;;;;;4.93;2.80;;;;;;;21.31;49.42;101120.81;5092950;28;20539;-68
2021/07/23 09:33:35;;;;;;;4.97;2.23;;;;;;;21.19;49.70;101116.50;5083285;28;20209;-69
2021/07/23 09:36:03;;;;;;;5.90;2.60;;;;;;;21.20;50.07;101123.63;5093477;28;20211;-68
2021/07/23 09:38:34;;;;;;;4.30;2.67;;;;;;;21.80;48.86;101122.44;5093085;28;20553;-68
2021/07/23 09:41:00;;;;;;;5.40;3.40;;;;;;;21.84;48.40;101115.72;5093481;28;20151;-68
2021/07/23 09:43:33;;;;;;;5.60;2.90;;;;;;;20.73;51.21;101106.28;5092566;28;20170;-69
2021/07/23 09:46:20;;;;;;;7.30;3.00;;;;;;;21.86;47.74;101118.28;5091709;28;20201;-69
2021/07/23 09:48:46;;;;;;;6.93;2.60;;;;;;;21.47;49.12;101112.91;5093777;28;20253;-74
2021/07/23 09:51:12;;;;;;;5.83;2.63;;;;;;;22.04;46.84;101113.84;5092110;28;20184;-69
2021/07/23 09:53:37;;;;;;;5.43;2.33;;;;;;;22.23;47.91;101109.31;5093810;28;20550;-69
2021/07/23 09:56:07;;;;;;;11.70;2.30;;;;;;;22.43;47.74;101106.38;5091958;28;20796;-68
2021/07/23 09:58:43;;;;;;;5.20;2.40;;;;;;;21.99;48.90;101109.81;5093445;28;20162;-69
2021/07/23 10:01:11;;;;;;;5.63;2.83;;;;;;;22.25;47.45;101104.59;5093342;28;20192;-71
2021/07/23 10:03:39;;;;;;;5.43;2.60;;;;;;;21.80;50.18;101108.00;5092364;28;20275;-69
2021/07/23 10:06:09;;;;;;;5.70;2.70;;;;;;;22.78;46.46;101102.88;5114018;22;20198;-73
2021/07/23 10:08:46;;;;;;;4.53;2.93;;;;;;;22.83;46.76;101098.84;5053654;28;20202;-73
2021/07/23 10:11:11;;;;;;;7.03;2.93;;;;;;;21.66;50.21;101101.19;5055052;28;20577;-73
2021/07/23 10:13:40;;;;;;;5.20;2.70;;;;;;;21.77;50.95;101100.16;5053058;28;20195;-73
2021/07/23 10:16:07;;;;;;;4.97;2.67;;;;;;;21.60;49.20;101087.34;5056849;28;20183;-72
2021/07/23 10:18:34;;;;;;;6.03;2.70;;;;;;;21.45;50.04;101092.34;5058186;28;20632;-73
2021/07/23 10:21:00;;;;;;;6.97;2.30;;;;;;;22.11;47.25;101086.91;5058788;28;20182;-73
2021/07/23 10:23:26;;;;;;;5.47;2.57;;;;;;;21.99;48.66;101093.50;5057224;28;20180;-72
2021/07/23 10:25:53;;;;;;;4.83;2.50;;;;;;;21.60;48.27;101088.19;5056613;28;20179;-73
2021/07/23 10:28:38;;;;;;;6.30;2.63;;;;;;;22.51;46.35;101077.56;5043894;28;20249;-73
2021/07/23 10:31:24;;;;;;;5.33;2.27;;;;;;;21.58;47.31;101084.78;5061968;28;20199;-72
2021/07/23 10:34:03;;;;;;;5.43;2.40;;;;;;;22.08;47.62;101079.91;5065587;28;20219;-72
2021/07/23 10:36:31;;;;;;;6.00;2.10;;;;;;;23.04;45.86;101085.78;5056939;28;20253;-71
2021/07/23 10:39:06;;;;;;;4.53;2.33;;;;;;;23.21;44.51;101084.94;5056508;28;20175;-73
2021/07/23 10:41:35;;;;;;;6.23;2.50;;;;;;;23.55;44.65;101085.09;5055317;28;20177;-72
2021/07/23 10:44:00;;;;;;;7.13;3.07;;;;;;;23.69;43.58;101089.94;5040012;28;20252;-72
2021/07/23 10:46:45;;;;;;;4.30;2.33;;;;;;;23.99;42.48;101080.41;5058889;28;20654;-72
2021/07/23 10:49:11;;;;;;;7.80;4.03;;;;;;;24.01;41.99;101075.66;5054923;28;20279;-72
2021/07/23 10:51:48;;;;;;;5.53;2.47;;;;;;;23.76;42.31;101079.25;5037867;28;20211;-72
2021/07/23 10:54:15;;;;;;;5.43;3.83;;;;;;;22.96;44.13;101081.13;5037627;28;20300;-72
2021/07/23 10:57:00;;;;;;;6.00;2.33;;;;;;;23.21;43.62;101067.75;5037554;28;20235;-72
2021/07/23 10:59:38;;;;;;;3.93;2.63;;;;;;;24.24;42.37;101075.09;5055590;28;20229;-72
2021/07/23 11:02:04;;;;;;;4.50;2.60;;;;;;;24.51;39.91;101072.16;5054359;28;20183;-72
2021/07/23 11:04:29;;;;;;;3.97;2.60;;;;;;;24.43;40.03;101066.66;5037519;28;20171;-72
2021/07/23 11:06:59;;;;;;;3.47;2.50;;;;;;;24.69;39.26;101071.19;5054244;28;20216;-72
2021/07/23 11:09:25;;;;;;;3.70;2.17;;;;;;;26.23;36.33;101076.59;5054401;28;20239;-72
2021/07/23 11:11:50;;;;;;;10.87;7.67;;;;;;;28.19;31.37;101065.84;5037704;28;20180;-72
2021/07/23 11:14:17;;;;;;;8.13;4.00;;;;;;;29.05;30.46;101064.19;5054537;28;20197;-71
2021/07/23 11:16:43;;;;;;;3.10;2.20;;;;;;;29.67;29.72;101073.63;5054087;28;20206;-71
2021/07/23 11:19:16;;;;;;;3.10;1.90;;;;;;;28.44;31.24;101060.09;5037375;28;20232;-70
2021/07/23 11:21:41;;;;;;;3.03;1.90;;;;;;;27.34;32.62;101065.34;5037539;28;20206;-71